createdAt,value
2018-06-12T00:00:56.979Z,71.19
2018-06-12T00:03:25.526Z,70.17
2018-06-12T00:05:54.059Z,70.31
2018-06-12T00:08:22.367Z,71.00
2018-06-12T00:10:50.880Z,70.98
2018-06-12T00:13:19.519Z,70.78
2018-06-12T00:15:48.068Z,70.00
2018-06-12T00:18:16.740Z,70.66
2018-06-12T00:20:45.416Z,69.75
2018-06-12T00:23:13.990Z,70.20
2018-06-12T00:25:42.421Z,70.95
2018-06-12T00:28:10.846Z,71.02
2018-06-12T00:30:39.408Z,70.99
2018-06-12T00:33:08.165Z,71.23
2018-06-12T00:35:36.790Z,70.99
2018-06-12T00:38:05.400Z,71.41
2018-06-12T00:40:33.913Z,71.40
2018-06-12T00:43:02.319Z,71.06
2018-06-12T00:45:30.541Z,70.63
2018-06-12T00:47:59.333Z,71.72
2018-06-12T00:50:27.778Z,71.57
2018-06-12T00:52:56.241Z,71.59
2018-06-12T00:55:24.692Z,71.90
2018-06-12T00:57:53.087Z,71.85
2018-06-12T01:00:21.566Z,72.65
2018-06-12T01:02:50.201Z,72.76
2018-06-12T01:05:18.822Z,72.95
2018-06-12T01:07:47.355Z,72.66
2018-06-12T01:10:15.820Z,73.35
2018-06-12T01:12:44.118Z,72.44
2018-06-12T01:15:12.445Z,73.21
2018-06-12T01:17:41.017Z,73.49
2018-06-12T01:20:09.472Z,73.07
2018-06-12T01:22:38.077Z,73.43
2018-06-12T01:25:06.425Z,73.69
2018-06-12T01:27:34.936Z,73.92
2018-06-12T01:30:03.363Z,73.24
2018-06-12T01:32:31.741Z,73.26
2018-06-12T01:35:00.273Z,73.25
2018-06-12T01:37:28.944Z,73.86
2018-06-12T01:39:57.645Z,73.89
2018-06-12T01:42:26.161Z,75.04
2018-06-12T01:44:54.561Z,74.11
2018-06-12T01:47:23.112Z,74.51
2018-06-12T01:49:51.512Z,75.17
2018-06-12T01:52:20.192Z,74.12
2018-06-12T01:54:48.552Z,74.34
2018-06-12T01:57:16.949Z,73.45
2018-06-12T01:59:45.683Z,74.52
2018-06-12T02:02:14.084Z,74.73
2018-06-12T02:04:42.872Z,74.32
2018-06-12T02:07:11.388Z,74.79
2018-06-12T02:09:39.932Z,74.50
2018-06-12T02:12:08.660Z,75.56
2018-06-12T02:14:37.476Z,75.79
2018-06-12T02:17:05.883Z,75.02
2018-06-12T02:19:34.452Z,74.21
2018-06-12T02:22:03.046Z,75.12
2018-06-12T02:24:31.584Z,74.82
2018-06-12T02:26:59.993Z,74.23
2018-06-12T02:29:28.541Z,74.61
2018-06-12T02:31:56.988Z,74.23
2018-06-12T02:34:25.675Z,74.55
2018-06-12T02:36:54.153Z,74.40
2018-06-12T02:39:22.735Z,74.78
2018-06-12T02:41:51.290Z,74.43
2018-06-12T02:44:19.854Z,75.21
2018-06-12T02:46:48.535Z,74.44
2018-06-12T02:49:17.148Z,74.56
2018-06-12T02:51:45.650Z,74.31
2018-06-12T02:54:14.097Z,75.18
2018-06-12T02:56:42.747Z,74.77
2018-06-12T02:59:11.326Z,75.09
2018-06-12T03:01:39.657Z,74.12
2018-06-12T03:04:08.027Z,74.90
2018-06-12T03:06:36.398Z,74.43
2018-06-12T03:09:08.534Z,74.11
2018-06-12T03:11:37.073Z,73.39
2018-06-12T03:14:05.560Z,73.87
2018-06-12T03:16:34.216Z,73.63
2018-06-12T03:19:02.625Z,73.78
2018-06-12T03:21:31.295Z,73.65
2018-06-12T03:23:59.529Z,72.77
2018-06-12T03:26:27.952Z,72.36
2018-06-12T03:28:56.610Z,72.76
2018-06-12T03:31:24.965Z,73.37
2018-06-12T03:33:53.557Z,73.16
2018-06-12T03:36:22.097Z,74.04
2018-06-12T03:38:50.708Z,73.61
2018-06-12T03:41:19.310Z,73.27
2018-06-12T03:43:47.823Z,73.62
2018-06-12T03:46:16.180Z,72.83
2018-06-12T03:48:44.593Z,71.87
2018-06-12T03:51:12.885Z,72.60
2018-06-12T03:53:41.155Z,73.44
2018-06-12T03:56:09.713Z,74.28
2018-06-12T03:58:38.253Z,74.01
2018-06-12T04:01:06.744Z,74.31
2018-06-12T04:03:35.385Z,73.92
2018-06-12T04:06:03.887Z,72.78
2018-06-12T04:08:32.261Z,72.64
2018-06-12T04:11:00.792Z,72.94
2018-06-12T04:13:29.401Z,73.13
2018-06-12T04:15:57.980Z,73.67
2018-06-12T04:18:26.335Z,74.61
2018-06-12T04:20:55.127Z,73.94
2018-06-12T04:23:23.565Z,73.82
2018-06-12T04:25:52.028Z,73.57
2018-06-12T04:28:20.508Z,74.02
2018-06-12T04:30:48.952Z,73.42
2018-06-12T04:33:17.755Z,73.57
2018-06-12T04:35:46.130Z,73.99
2018-06-12T04:38:14.715Z,73.15
2018-06-12T04:40:43.672Z,72.46
2018-06-12T04:43:12.180Z,73.31
2018-06-12T04:45:40.561Z,73.21
2018-06-12T04:48:09.089Z,73.59
2018-06-12T04:50:37.699Z,73.58
2018-06-12T04:53:06.398Z,72.62
2018-06-12T04:55:35.211Z,71.81
2018-06-12T04:58:03.932Z,71.85
2018-06-12T05:00:32.285Z,71.81
2018-06-12T05:03:00.679Z,72.62
2018-06-12T05:05:29.284Z,72.00
2018-06-12T05:07:57.673Z,72.41
2018-06-12T05:10:26.488Z,71.02
2018-06-12T05:12:55.246Z,70.89
2018-06-12T05:15:23.762Z,71.55
2018-06-12T05:17:52.423Z,72.76
2018-06-12T05:20:20.905Z,71.01
2018-06-12T05:22:49.403Z,71.41
2018-06-12T05:25:17.856Z,71.95
2018-06-12T05:27:46.585Z,71.74
2018-06-12T05:30:15.116Z,70.91
2018-06-12T05:32:43.723Z,70.50
2018-06-12T05:35:12.351Z,70.30
2018-06-12T05:37:40.961Z,70.76
2018-06-12T05:40:09.481Z,69.01
2018-06-12T05:42:38.348Z,69.47
2018-06-12T05:45:08.466Z,69.33
2018-06-12T05:47:37.077Z,69.40
2018-06-12T05:50:05.539Z,69.55
2018-06-12T05:52:33.926Z,68.99
2018-06-12T05:55:02.931Z,68.80
2018-06-12T05:57:31.273Z,68.74
2018-06-12T06:00:00.029Z,67.66
2018-06-12T06:02:28.482Z,67.15
2018-06-12T06:04:57.326Z,67.21
2018-06-12T06:07:25.565Z,68.07
2018-06-12T06:09:53.936Z,68.26
2018-06-12T06:12:23.402Z,68.52
2018-06-12T06:14:51.958Z,68.46
2018-06-12T06:17:20.409Z,66.98
2018-06-12T06:19:48.781Z,67.38
2018-06-12T06:22:17.508Z,67.53
2018-06-12T06:24:45.913Z,67.30
2018-06-12T06:27:14.402Z,67.71
2018-06-12T06:29:43.316Z,66.19
2018-06-12T06:32:11.741Z,65.58
2018-06-12T06:34:40.431Z,66.47
2018-06-12T06:37:08.881Z,66.20
2018-06-12T06:39:37.406Z,65.97
2018-06-12T06:42:05.784Z,64.82
2018-06-12T06:44:34.080Z,66.23
2018-06-12T06:47:03.313Z,65.90
2018-06-12T06:49:31.892Z,65.88
2018-06-12T06:52:00.695Z,66.30
2018-06-12T06:54:29.257Z,65.34
2018-06-12T06:56:57.652Z,64.25
2018-06-12T06:59:26.136Z,65.97
2018-06-12T07:01:54.543Z,65.39
2018-06-12T07:04:23.149Z,64.53
2018-06-12T07:06:51.550Z,64.70
2018-06-12T07:09:19.936Z,65.80
2018-06-12T07:11:48.431Z,65.44
2018-06-12T07:14:16.818Z,64.54
2018-06-12T07:16:45.575Z,65.24
2018-06-12T07:19:14.131Z,65.16
2018-06-12T07:21:42.505Z,64.04
2018-06-12T07:24:11.183Z,63.53
2018-06-12T07:26:39.824Z,63.18
2018-06-12T07:29:08.224Z,63.58
2018-06-12T07:31:36.962Z,63.34
2018-06-12T07:34:05.373Z,62.48
2018-06-12T07:36:33.888Z,62.27
2018-06-12T07:39:02.784Z,62.71
2018-06-12T07:41:31.223Z,61.87
2018-06-12T07:44:01.042Z,61.91
2018-06-12T07:46:29.536Z,61.30
2018-06-12T07:48:58.538Z,61.69
2018-06-12T07:51:27.551Z,60.95
2018-06-12T07:53:56.939Z,61.41
2018-06-12T07:56:25.392Z,61.88
2018-06-12T07:58:54.241Z,61.90
2018-06-12T08:01:22.977Z,60.57
2018-06-12T08:03:51.462Z,60.91
2018-06-12T08:06:19.987Z,61.94
2018-06-12T08:08:48.434Z,60.13
2018-06-12T08:11:16.813Z,59.84
2018-06-12T08:13:45.399Z,60.19
2018-06-12T08:16:14.146Z,59.82
2018-06-12T08:18:42.589Z,60.58
2018-06-12T08:21:11.082Z,60.52
2018-06-12T08:23:39.512Z,60.12
2018-06-12T08:26:08.006Z,58.70
2018-06-12T08:28:36.553Z,57.67
2018-06-12T08:31:05.171Z,59.36
2018-06-12T08:33:33.533Z,59.08
2018-06-12T08:36:02.265Z,58.63
2018-06-12T08:38:30.704Z,58.72
2018-06-12T08:40:59.500Z,57.94
2018-06-12T08:43:27.884Z,57.84
2018-06-12T08:45:56.602Z,58.27
2018-06-12T08:48:25.094Z,56.87
2018-06-12T08:50:53.796Z,56.73
2018-06-12T08:53:22.312Z,56.94
2018-06-12T08:55:50.887Z,57.26
2018-06-12T08:58:19.393Z,56.25
2018-06-12T09:00:47.956Z,57.18
2018-06-12T09:03:17.439Z,58.79
2018-06-12T09:05:46.214Z,59.45
2018-06-12T09:08:14.734Z,58.76
2018-06-12T09:10:43.587Z,58.59
2018-06-12T09:13:12.385Z,57.71
2018-06-12T09:15:41.502Z,57.67
2018-06-12T09:18:09.892Z,57.87
2018-06-12T09:20:39.358Z,57.04
2018-06-12T09:23:07.685Z,57.78
2018-06-12T09:25:36.225Z,57.72
2018-06-12T09:28:04.645Z,57.47
2018-06-12T09:30:33.321Z,56.98
2018-06-12T09:33:01.828Z,56.41
2018-06-12T09:35:30.457Z,55.77
2018-06-12T09:37:59.021Z,54.56
2018-06-12T09:40:27.554Z,54.25
2018-06-12T09:42:56.139Z,54.43
2018-06-12T09:45:24.658Z,54.61
2018-06-12T09:47:53.333Z,55.69
2018-06-12T09:50:22.166Z,55.30
2018-06-12T09:52:50.551Z,55.96
2018-06-12T09:55:19.349Z,56.54
2018-06-12T09:57:47.867Z,55.16
2018-06-12T10:00:21.088Z,54.72
2018-06-12T10:02:50.423Z,55.09
2018-06-12T10:05:19.378Z,55.50
2018-06-12T10:07:49.655Z,54.70
2018-06-12T10:10:17.843Z,54.96
2018-06-12T10:12:46.478Z,54.06
2018-06-12T10:15:14.951Z,54.55
2018-06-12T10:17:44.278Z,54.25
2018-06-12T10:20:12.724Z,55.40
2018-06-12T10:22:41.312Z,55.33
2018-06-12T10:25:09.894Z,54.43
2018-06-12T10:27:38.626Z,53.81
2018-06-12T10:30:07.120Z,52.52
2018-06-12T10:32:35.604Z,54.61
2018-06-12T10:35:04.147Z,53.71
2018-06-12T10:37:32.367Z,53.98
2018-06-12T10:40:00.993Z,54.14
2018-06-12T10:42:29.531Z,54.77
2018-06-12T10:44:58.157Z,54.18
2018-06-12T10:47:26.843Z,54.54
2018-06-12T10:49:55.371Z,54.50
2018-06-12T10:52:23.783Z,54.17
2018-06-12T10:54:52.435Z,52.41
2018-06-12T10:57:20.910Z,52.61
2018-06-12T10:59:49.589Z,52.42
2018-06-12T11:02:18.322Z,52.57
2018-06-12T11:04:46.744Z,53.34
2018-06-12T11:07:15.203Z,53.29
2018-06-12T11:09:43.718Z,52.22
2018-06-12T11:12:12.533Z,53.69
2018-06-12T11:14:41.666Z,53.13
2018-06-12T11:17:10.102Z,53.06
2018-06-12T11:19:38.617Z,51.63
2018-06-12T11:22:07.101Z,52.86
2018-06-12T11:24:35.595Z,53.97
2018-06-12T11:27:04.187Z,54.13
2018-06-12T11:29:32.797Z,54.09
2018-06-12T11:32:01.361Z,54.06
2018-06-12T11:34:30.204Z,54.35
2018-06-12T11:36:58.694Z,54.63
2018-06-12T11:39:27.132Z,54.20
2018-06-12T11:41:55.666Z,54.53
2018-06-12T11:44:24.252Z,55.14
2018-06-12T11:46:52.869Z,55.51
2018-06-12T11:49:21.440Z,55.84
2018-06-12T11:51:50.132Z,55.45
2018-06-12T11:54:18.856Z,55.32
2018-06-12T11:56:47.393Z,55.44
2018-06-12T11:59:15.998Z,54.88
2018-06-12T12:01:44.593Z,54.30
2018-06-12T12:04:12.847Z,55.10
2018-06-12T12:06:41.560Z,56.06
2018-06-12T12:09:09.982Z,55.99
2018-06-12T12:11:38.943Z,56.66
2018-06-12T12:14:07.247Z,57.37
2018-06-12T12:16:35.669Z,59.36
2018-06-12T12:19:04.484Z,59.68
2018-06-12T12:21:33.185Z,60.17
2018-06-12T12:24:01.551Z,61.58
2018-06-12T12:26:30.241Z,59.67
2018-06-12T12:28:58.598Z,61.24
2018-06-12T12:31:27.445Z,61.70
2018-06-12T12:33:56.329Z,63.04
2018-06-12T12:36:24.882Z,62.07
2018-06-12T12:38:53.501Z,62.82
2018-06-12T12:41:23.180Z,61.69
2018-06-12T12:43:51.451Z,62.99
2018-06-12T12:46:19.823Z,61.75
2018-06-12T12:48:48.165Z,63.55
2018-06-12T12:51:16.820Z,61.90
2018-06-12T12:53:45.536Z,60.97
2018-06-12T12:56:14.049Z,62.43
2018-06-12T12:58:42.748Z,62.72
2018-06-12T13:01:11.509Z,65.18
2018-06-12T13:03:40.016Z,64.27
2018-06-12T13:06:08.683Z,64.56
2018-06-12T13:08:37.256Z,63.78
2018-06-12T13:11:06.052Z,64.94
2018-06-12T13:13:34.960Z,63.98
2018-06-12T13:16:03.623Z,64.13
2018-06-12T13:18:32.181Z,64.74
2018-06-12T13:21:00.909Z,65.49
2018-06-12T13:23:29.708Z,63.97
2018-06-12T13:25:58.599Z,62.92
2018-06-12T13:28:27.263Z,64.14
2018-06-12T13:30:55.973Z,62.75
2018-06-12T13:33:24.657Z,63.79
2018-06-12T13:35:53.283Z,63.43
2018-06-12T13:38:21.882Z,64.26
2018-06-12T13:40:50.578Z,63.10
2018-06-12T13:43:19.617Z,62.90
2018-06-12T13:45:47.908Z,62.12
2018-06-12T13:48:16.525Z,62.02
2018-06-12T13:50:45.309Z,61.16
2018-06-12T13:53:13.878Z,61.65
2018-06-12T13:55:42.563Z,61.43
2018-06-12T13:58:11.043Z,61.06
2018-06-12T14:00:39.628Z,60.50
2018-06-12T14:03:08.086Z,60.79
2018-06-12T14:05:36.790Z,61.18
2018-06-12T14:08:05.182Z,61.14
2018-06-12T14:10:33.776Z,60.96
2018-06-12T14:13:02.236Z,61.26
2018-06-12T14:15:30.960Z,61.47
2018-06-12T14:17:59.460Z,61.75
2018-06-12T14:20:28.194Z,61.19
2018-06-12T14:22:56.820Z,62.04
2018-06-12T14:25:26.542Z,61.75
2018-06-12T14:27:55.029Z,61.58
2018-06-12T14:30:23.799Z,61.73
2018-06-12T14:32:52.456Z,61.21
2018-06-12T14:35:21.025Z,61.58
2018-06-12T14:37:49.552Z,59.69
2018-06-12T14:40:18.032Z,60.35
2018-06-12T14:42:46.871Z,59.15
2018-06-12T14:45:15.514Z,59.42
2018-06-12T14:47:44.121Z,58.05
2018-06-12T14:50:13.137Z,56.87
2018-06-12T14:52:41.416Z,56.56
2018-06-12T14:55:09.997Z,56.73
2018-06-12T14:57:38.281Z,57.91
2018-06-12T15:00:07.026Z,57.16
2018-06-12T15:02:35.687Z,55.92
2018-06-12T15:05:04.345Z,55.97
2018-06-12T15:07:33.172Z,56.01
2018-06-12T15:10:01.657Z,55.75
2018-06-12T15:12:30.446Z,55.79
2018-06-12T15:14:59.170Z,55.86
2018-06-12T15:17:27.505Z,56.58
2018-06-12T15:19:56.236Z,55.43
2018-06-12T15:22:24.570Z,56.49
2018-06-12T15:24:53.396Z,55.25
2018-06-12T15:27:22.368Z,55.73
2018-06-12T15:29:51.074Z,54.88
2018-06-12T15:32:19.753Z,54.33
2018-06-12T15:34:48.411Z,54.71
2018-06-12T15:37:17.157Z,53.90
2018-06-12T15:39:45.588Z,54.66
2018-06-12T15:42:14.130Z,54.83
2018-06-12T15:44:42.645Z,56.36
2018-06-12T15:47:11.882Z,57.56
2018-06-12T15:49:40.343Z,56.46
2018-06-12T15:52:08.783Z,57.33
2018-06-12T15:54:37.529Z,57.21
2018-06-12T15:57:06.166Z,57.69
2018-06-12T15:59:34.578Z,56.78
2018-06-12T16:02:03.091Z,56.57
2018-06-12T16:04:31.772Z,56.88
2018-06-12T16:07:00.280Z,56.24
2018-06-12T16:09:28.878Z,56.79
2018-06-12T16:11:57.501Z,56.48
2018-06-12T16:14:26.142Z,57.24
2018-06-12T16:16:54.927Z,57.20
2018-06-12T16:19:23.613Z,56.65
2018-06-12T16:21:52.564Z,56.37
2018-06-12T16:24:21.296Z,57.39
2018-06-12T16:26:50.514Z,57.10
2018-06-12T16:29:19.025Z,57.53
2018-06-12T16:31:47.482Z,57.85
2018-06-12T16:34:16.189Z,58.16
2018-06-12T16:36:45.116Z,58.00
2018-06-12T16:39:13.419Z,58.69
2018-06-12T16:41:42.132Z,58.00
2018-06-12T16:44:11.245Z,57.37
2018-06-12T16:46:39.930Z,58.40
2018-06-12T16:49:08.646Z,58.01
2018-06-12T16:51:36.941Z,58.75
2018-06-12T16:54:05.849Z,59.41
2018-06-12T16:56:34.351Z,59.25
2018-06-12T16:59:02.909Z,58.82
2018-06-12T17:01:31.465Z,59.55
2018-06-12T17:03:59.807Z,59.82
2018-06-12T17:06:28.385Z,59.29
2018-06-12T17:08:57.188Z,59.36
2018-06-12T17:11:25.784Z,59.17
2018-06-12T17:13:54.260Z,59.74
2018-06-12T17:16:23.032Z,59.71
2018-06-12T17:18:51.794Z,59.50
2018-06-12T17:21:20.656Z,59.26
2018-06-12T17:23:49.257Z,59.05
2018-06-12T17:26:17.832Z,59.41
2018-06-12T17:28:46.570Z,59.43
2018-06-12T17:31:15.164Z,59.98
2018-06-12T17:33:43.933Z,59.93
2018-06-12T17:36:12.345Z,60.32
2018-06-12T17:38:40.828Z,59.55
2018-06-12T17:41:09.397Z,59.91
2018-06-12T17:43:38.108Z,59.66
2018-06-12T17:46:06.483Z,59.82
2018-06-12T17:48:35.030Z,60.11
2018-06-12T17:51:03.740Z,59.96
2018-06-12T17:53:32.653Z,60.16
2018-06-12T17:56:00.966Z,59.48
2018-06-12T17:58:29.662Z,59.37
2018-06-12T18:00:58.223Z,59.06
2018-06-12T18:03:26.886Z,59.55
2018-06-12T18:05:55.284Z,59.12
2018-06-12T18:08:24.137Z,60.21
2018-06-12T18:10:52.529Z,59.43
2018-06-12T18:13:21.531Z,59.47
2018-06-12T18:15:50.120Z,59.72
2018-06-12T18:18:18.564Z,59.05
2018-06-12T18:20:47.617Z,59.97
2018-06-12T18:23:16.379Z,59.70
2018-06-12T18:25:44.861Z,60.26
2018-06-12T18:28:13.483Z,59.60
2018-06-12T18:30:42.737Z,60.33
2018-06-12T18:33:11.153Z,60.16
2018-06-12T18:35:39.837Z,60.29
2018-06-12T18:38:08.456Z,60.55
2018-06-12T18:40:36.999Z,60.38
2018-06-12T18:43:05.601Z,60.98
2018-06-12T18:45:34.316Z,60.67
2018-06-12T18:48:03.079Z,60.90
2018-06-12T18:50:31.740Z,61.08
2018-06-12T18:53:00.442Z,61.47
2018-06-12T18:55:29.196Z,61.59
2018-06-12T18:57:57.789Z,61.78
2018-06-12T19:00:26.583Z,61.68
2018-06-12T19:02:55.536Z,62.08
2018-06-12T19:05:24.220Z,61.68
2018-06-12T19:07:52.983Z,61.75
2018-06-12T19:10:21.513Z,62.32
2018-06-12T19:12:50.466Z,62.67
2018-06-12T19:15:19.212Z,63.68
2018-06-12T19:17:47.884Z,62.71
2018-06-12T19:20:16.646Z,63.02
2018-06-12T19:22:45.472Z,63.15
2018-06-12T19:25:14.031Z,63.88
2018-06-12T19:27:43.622Z,63.86
2018-06-12T19:30:12.091Z,64.03
2018-06-12T19:32:40.559Z,64.85
2018-06-12T19:35:09.088Z,64.08
2018-06-12T19:37:37.592Z,64.76
2018-06-12T19:40:06.082Z,64.69
2018-06-12T19:42:34.387Z,65.41
2018-06-12T19:45:03.089Z,64.27
2018-06-12T19:47:31.658Z,64.49
2018-06-12T19:50:00.287Z,65.01
2018-06-12T19:52:29.165Z,64.76
2018-06-12T19:54:57.732Z,64.85
2018-06-12T19:57:26.359Z,64.29
2018-06-12T19:59:55.111Z,64.50
2018-06-12T20:02:23.663Z,65.25
2018-06-12T20:04:52.365Z,65.51
2018-06-12T20:07:20.916Z,65.47
2018-06-12T20:09:49.571Z,64.97
2018-06-12T20:12:18.188Z,65.30
2018-06-12T20:14:47.000Z,64.38
2018-06-12T20:17:15.788Z,65.29
2018-06-12T20:19:44.289Z,64.87
2018-06-12T20:22:13.206Z,64.54
2018-06-12T20:24:41.948Z,65.12
2018-06-12T20:27:10.757Z,64.87
2018-06-12T20:29:39.122Z,64.94
2018-06-12T20:32:07.610Z,64.15
2018-06-12T20:34:36.085Z,63.37
2018-06-12T20:37:05.073Z,63.35
2018-06-12T20:39:33.973Z,63.52
2018-06-12T20:42:02.417Z,63.54
2018-06-12T20:44:30.919Z,64.06
2018-06-12T20:46:59.932Z,64.33
2018-06-12T20:49:28.532Z,64.41
2018-06-12T20:51:57.124Z,64.09
2018-06-12T20:54:25.805Z,64.59
2018-06-12T20:56:54.263Z,63.73
2018-06-12T20:59:22.664Z,64.56
2018-06-12T21:01:51.348Z,63.17
2018-06-12T21:04:19.859Z,63.69
2018-06-12T21:06:48.448Z,64.08
2018-06-12T21:09:17.016Z,64.37
2018-06-12T21:11:45.876Z,64.32
2018-06-12T21:14:14.483Z,64.72
2018-06-12T21:16:42.984Z,64.82
2018-06-12T21:19:11.786Z,64.61
2018-06-12T21:21:40.179Z,64.40
2018-06-12T21:24:08.524Z,64.37
2018-06-12T21:26:37.080Z,65.41
2018-06-12T21:29:05.564Z,65.01
2018-06-12T21:31:34.131Z,65.35
2018-06-12T21:34:02.709Z,65.93
2018-06-12T21:36:31.171Z,64.61
2018-06-12T21:38:59.773Z,65.20
2018-06-12T21:41:28.276Z,64.15
2018-06-12T21:43:56.864Z,64.30
2018-06-12T21:46:25.404Z,64.60
2018-06-12T21:48:53.983Z,64.01
2018-06-12T21:51:22.608Z,63.88
2018-06-12T21:53:51.095Z,64.50
2018-06-12T21:56:19.696Z,65.06
2018-06-12T21:58:48.441Z,64.96
2018-06-12T22:01:17.448Z,64.63
2018-06-12T22:03:45.945Z,64.69
2018-06-12T22:06:14.553Z,65.28
2018-06-12T22:08:43.020Z,64.89
2018-06-12T22:11:11.729Z,65.02
2018-06-12T22:13:40.163Z,64.62
2018-06-12T22:16:08.581Z,64.90
2018-06-12T22:18:37.455Z,65.50
2018-06-12T22:21:05.922Z,65.32
2018-06-12T22:23:35.033Z,65.95
2018-06-12T22:26:03.548Z,65.98
2018-06-12T22:28:32.185Z,66.43
2018-06-12T22:31:00.711Z,65.99
2018-06-12T22:33:29.230Z,66.79
2018-06-12T22:35:57.652Z,66.61
2018-06-12T22:38:26.612Z,66.06
2018-06-12T22:40:55.032Z,66.56
2018-06-12T22:43:23.718Z,66.58
2018-06-12T22:45:52.371Z,66.72
2018-06-12T22:48:20.933Z,65.55
2018-06-12T22:50:49.328Z,64.35
2018-06-12T22:53:18.016Z,64.34
2018-06-12T22:55:46.560Z,63.69
2018-06-12T22:58:14.965Z,63.06
2018-06-12T23:00:43.893Z,63.46
2018-06-12T23:03:12.286Z,63.70
2018-06-12T23:05:41.201Z,63.40
2018-06-12T23:08:09.705Z,64.20
2018-06-12T23:10:38.092Z,63.98
2018-06-12T23:13:06.704Z,63.68
2018-06-12T23:15:35.397Z,64.46
2018-06-12T23:18:03.853Z,64.08
2018-06-12T23:21:57.068Z,63.64
2018-06-12T23:24:25.905Z,64.87
2018-06-12T23:26:54.718Z,63.92
2018-06-12T23:29:23.170Z,64.50
2018-06-12T23:31:51.669Z,64.17
2018-06-12T23:34:20.494Z,64.05
2018-06-12T23:36:49.280Z,64.60
2018-06-12T23:39:17.932Z,63.93
2018-06-12T23:41:46.836Z,64.56
2018-06-12T23:44:15.285Z,65.03
2018-06-12T23:46:50.440Z,65.30
2018-06-12T23:49:18.941Z,65.55
2018-06-12T23:51:47.538Z,65.21
2018-06-12T23:54:16.116Z,65.19
2018-06-12T23:56:44.621Z,65.94
2018-06-12T23:59:13.099Z,66.65
